Zephyr, Texas
Current Conditions -  °F | °C
As of 1:55 PM on Sunday 23 Nov 2014 (Local Time) from KBWD Reporting Station
Clear Clear  
Wind Chill: 73°   Ceiling: Unl
Heat Index: 73°   Visibility: 10mi
Dew Point: 37°   Wind: 24mph
Humidity: 27%   Direction: 270°W
Pressure: 29.52"   Gusts: 33mph
Location:  31.68°N, 98.79°W
Report Text: KBWD 231955Z AUTO 27021G29KT 10SM CLR 23/03 A2952 RMK AO2
Loading
Personal Weather Stations






























Interactive Weather Map New forecast layout! Learn more

10-Day Weather Forecast

Advertisements
Track Severe Weather on mobile